Time;durP1;ratioP1;P1;durP2;ratioP2;P2;SDS_P1;SDS_P2;PMS_P1;PMS_P2;Temp;Humidity;BMP_temperature;BMP_pressure;BME280_temperature;BME280_humidity;BME280_pressure;Samples;Min_cycle;Max_cycle;Signal;HPM_P1;HPM_P2
2023/11/01 00:00:46;;;;;;;3.83;1.70;;;;;;;12.34;100.00;99755.19;5092711;28;20048;-44
2023/11/01 00:03:15;;;;;;;4.88;1.90;;;;;;;12.30;100.00;99753.75;5092811;28;20044;-46
2023/11/01 00:05:46;;;;;;;4.68;2.10;;;;;;;12.29;100.00;99757.38;5092338;28;20135;-46
2023/11/01 00:08:14;;;;;;;3.45;1.83;;;;;;;12.26;100.00;99760.31;5092403;28;20044;-44
2023/11/01 00:10:42;;;;;;;3.55;1.80;;;;;;;12.22;100.00;99759.66;5092537;28;20040;-46
2023/11/01 00:13:11;;;;;;;5.05;2.10;;;;;;;12.21;100.00;99762.44;5092606;28;20143;-47
2023/11/01 00:15:41;;;;;;;7.47;2.03;;;;;;;12.23;100.00;99766.72;5092556;28;20123;-46
2023/11/01 00:18:09;;;;;;;5.03;2.03;;;;;;;12.27;100.00;99773.56;5092770;28;20097;-46
2023/11/01 00:20:38;;;;;;;3.63;1.85;;;;;;;12.24;100.00;99768.41;5091106;28;20075;-46
2023/11/01 00:23:06;;;;;;;3.40;1.70;;;;;;;12.28;100.00;99769.06;5092011;28;20058;-45
2023/11/01 00:25:35;;;;;;;5.32;1.98;;;;;;;12.28;100.00;99769.06;5092129;28;20394;-46
2023/11/01 00:28:04;;;;;;;3.72;1.92;;;;;;;12.30;100.00;99778.66;5092472;28;20047;-46
2023/11/01 00:30:33;;;;;;;3.65;1.83;;;;;;;12.29;100.00;99781.47;5092211;28;20230;-45
2023/11/01 00:33:02;;;;;;;3.47;1.90;;;;;;;12.24;100.00;99779.09;5092256;28;20056;-45
2023/11/01 00:35:31;;;;;;;4.40;2.03;;;;;;;12.23;100.00;99781.91;5091916;28;20044;-45
2023/11/01 00:37:59;;;;;;;5.53;2.20;;;;;;;12.24;100.00;99784.47;5092180;28;20455;-44
2023/11/01 00:40:28;;;;;;;4.55;2.10;;;;;;;12.22;100.00;99780.19;5091842;28;20078;-46
2023/11/01 00:42:56;;;;;;;5.13;2.20;;;;;;;12.13;100.00;99783.56;5092291;28;20044;-45
2023/11/01 00:45:24;;;;;;;3.97;2.00;;;;;;;12.15;100.00;99784.28;5091917;28;20054;-45
2023/11/01 00:47:52;;;;;;;6.30;2.03;;;;;;;12.04;100.00;99793.94;5091277;28;20049;-46
2023/11/01 00:50:22;;;;;;;5.10;2.00;;;;;;;12.14;100.00;99787.94;5091336;28;20124;-44
2023/11/01 00:52:50;;;;;;;4.97;2.00;;;;;;;12.17;100.00;99798.41;5091412;28;20048;-48
2023/11/01 00:55:19;;;;;;;3.35;1.63;;;;;;;12.25;100.00;99796.00;5098011;28;20048;-46
2023/11/01 00:57:48;;;;;;;3.08;1.70;;;;;;;12.15;100.00;99805.69;5091171;28;20047;-46
2023/11/01 01:00:17;;;;;;;3.47;1.58;;;;;;;12.23;100.00;99803.28;5091793;28;20470;-45
2023/11/01 01:02:45;;;;;;;3.47;2.10;;;;;;;12.19;100.00;99809.84;5091828;28;20109;-47
2023/11/01 01:05:14;;;;;;;5.07;2.00;;;;;;;12.14;100.00;99809.31;5091251;28;20090;-46
2023/11/01 01:07:44;;;;;;;4.30;1.83;;;;;;;12.13;100.00;99811.13;5092229;28;20048;-46
2023/11/01 01:10:13;;;;;;;4.22;2.00;;;;;;;12.08;100.00;99821.34;5092808;28;20048;-46
2023/11/01 01:12:41;;;;;;;3.95;1.88;;;;;;;12.09;100.00;99823.03;5095262;28;20075;-45
2023/11/01 01:15:10;;;;;;;4.32;1.90;;;;;;;12.06;100.00;99827.72;5095117;28;20386;-45
2023/11/01 01:17:38;;;;;;;4.80;1.95;;;;;;;12.01;100.00;99822.72;5091238;28;20075;-45
2023/11/01 01:20:09;;;;;;;4.70;1.92;;;;;;;11.95;100.00;99824.03;5091636;28;20097;-47
2023/11/01 01:22:38;;;;;;;4.22;1.90;;;;;;;11.93;100.00;99819.75;5091334;28;20498;-47
2023/11/01 01:25:08;;;;;;;3.53;1.75;;;;;;;11.99;100.00;99822.84;5091381;28;20044;-45
2023/11/01 01:27:37;;;;;;;5.13;2.13;;;;;;;11.91;100.00;99809.19;5091551;28;20202;-46
2023/11/01 01:30:06;;;;;;;4.57;1.90;;;;;;;11.93;100.00;99809.91;5091549;28;20131;-47
2023/11/01 01:32:34;;;;;;;4.45;2.10;;;;;;;11.90;100.00;99812.84;5091794;28;20135;-49
2023/11/01 01:35:03;;;;;;;7.82;2.05;;;;;;;11.90;100.00;99810.16;5090954;28;20051;-44
2023/11/01 01:37:31;;;;;;;5.40;1.98;;;;;;;11.89;100.00;99824.50;5090836;28;20422;-45
2023/11/01 01:40:00;;;;;;;3.72;1.90;;;;;;;11.91;100.00;99825.22;5090951;28;20089;-45
2023/11/01 01:42:29;;;;;;;4.10;1.58;;;;;;;11.88;100.00;99820.13;5091095;28;20048;-45
2023/11/01 01:44:58;;;;;;;3.50;1.65;;;;;;;11.91;100.00;99832.38;5090704;28;20101;-45
2023/11/01 01:47:26;;;;;;;3.72;1.75;;;;;;;11.97;100.00;99832.81;5090907;28;20048;-46
2023/11/01 01:49:55;;;;;;;6.60;1.90;;;;;;;11.98;100.00;99833.66;5091178;28;20126;-46
2023/11/01 01:52:24;;;;;;;4.10;1.80;;;;;;;11.94;100.00;99827.66;5090772;28;20147;-44
2023/11/01 01:54:52;;;;;;;5.13;2.10;;;;;;;11.90;100.00;99826.19;5090933;28;20498;-47
2023/11/01 01:57:25;;;;;;;5.05;1.90;;;;;;;11.94;100.00;99826.81;5091091;28;20045;-45
2023/11/01 01:59:58;;;;;;;5.25;2.15;;;;;;;11.90;100.00;99828.88;5091072;28;20363;-45
2023/11/01 02:02:27;;;;;;;4.05;1.70;;;;;;;11.83;100.00;99832.09;5091146;28;20048;-46
2023/11/01 02:04:56;;;;;;;2.78;1.77;;;;;;;11.74;100.00;99839.75;5091334;28;20051;-45
2023/11/01 02:07:24;;;;;;;6.20;2.00;;;;;;;11.76;100.00;99831.63;5091052;28;20477;-47
2023/11/01 02:09:52;;;;;;;4.70;2.15;;;;;;;11.82;100.00;99844.59;5092682;28;20103;-46
2023/11/01 02:12:25;;;;;;;4.50;1.88;;;;;;;11.72;100.00;99847.03;5091845;28;20055;-46
2023/11/01 02:14:53;;;;;;;3.30;1.67;;;;;;;11.76;100.00;99842.31;5090859;28;20048;-44
2023/11/01 02:17:23;;;;;;;4.05;2.10;;;;;;;11.78;100.00;99850.25;5090875;28;20040;-46
2023/11/01 02:19:51;;;;;;;5.35;2.15;;;;;;;11.78;100.00;99853.78;5090827;28;20044;-46
2023/11/01 02:22:19;;;;;;;5.05;1.80;;;;;;;11.83;100.00;99859.66;5090538;28;20067;-46
2023/11/01 02:24:49;;;;;;;4.32;1.80;;;;;;;11.87;100.00;99849.59;5090614;28;20045;-46
2023/11/01 02:27:17;;;;;;;4.15;1.63;;;;;;;11.80;100.00;99865.22;5090706;28;20052;-44
2023/11/01 02:29:45;;;;;;;4.22;1.70;;;;;;;11.80;100.00;99865.22;5093856;28;20044;-45
2023/11/01 02:32:14;;;;;;;3.33;1.70;;;;;;;11.77;100.00;99876.09;5094387;28;20048;-47
2023/11/01 02:34:43;;;;;;;4.80;1.98;;;;;;;11.79;100.00;99866.16;5093118;28;20102;-48
2023/11/01 02:37:12;;;;;;;3.75;1.75;;;;;;;11.84;100.00;99871.19;5094251;28;20048;-45
2023/11/01 02:39:40;;;;;;;3.47;1.60;;;;;;;11.83;100.00;99877.50;5094501;28;20436;-45
2023/11/01 02:42:10;;;;;;;3.35;1.70;;;;;;;11.77;100.00;99881.44;5094466;28;20138;-45
2023/11/01 02:44:38;;;;;;;2.85;1.60;;;;;;;11.74;100.00;99892.34;5094311;28;20462;-45
2023/11/01 02:47:07;;;;;;;4.38;1.90;;;;;;;11.73;100.00;99894.16;5094209;28;20071;-44
2023/11/01 02:49:35;;;;;;;3.08;1.60;;;;;;;11.65;100.00;99890.31;5093952;28;20390;-45
2023/11/01 02:52:04;;;;;;;3.78;1.70;;;;;;;11.73;100.00;99887.97;5094174;28;20044;-44
2023/11/01 02:54:32;;;;;;;8.02;2.28;;;;;;;11.70;100.00;99885.53;5094111;28;20052;-46
2023/11/01 02:57:00;;;;;;;3.47;1.80;;;;;;;11.69;100.00;99890.00;5094196;28;20083;-45
2023/11/01 02:59:30;;;;;;;5.72;2.05;;;;;;;11.67;100.00;99891.06;5094172;28;20044;-44
2023/11/01 03:01:58;;;;;;;6.00;1.90;;;;;;;11.66;100.00;99900.88;5093754;28;20473;-46
2023/11/01 03:04:27;;;;;;;4.45;2.25;;;;;;;11.63;100.00;99894.91;5094031;28;20134;-45
2023/11/01 03:06:58;;;;;;;4.18;2.03;;;;;;;11.61;100.00;99902.19;5093550;28;20056;-44
2023/11/01 03:09:26;;;;;;;4.47;2.38;;;;;;;11.64;100.00;99908.16;5093775;28;20044;-44
2023/11/01 03:11:54;;;;;;;4.00;2.00;;;;;;;11.64;100.00;99909.97;5093826;28;20196;-45
2023/11/01 03:14:23;;;;;;;5.47;2.25;;;;;;;11.69;100.00;99910.53;5093893;28;20132;-45
2023/11/01 03:16:52;;;;;;;4.47;2.20;;;;;;;11.71;100.00;99911.28;5093362;28;20052;-44
2023/11/01 03:19:21;;;;;;;4.55;2.13;;;;;;;11.75;100.00;99905.59;5093692;28;20044;-46
2023/11/01 03:21:49;;;;;;;5.00;2.28;;;;;;;11.76;100.00;99906.44;5093437;28;20052;-42
2023/11/01 03:24:17;;;;;;;4.40;2.50;;;;;;;11.74;100.00;99906.56;5093577;28;20051;-45
2023/11/01 03:26:46;;;;;;;5.85;2.50;;;;;;;11.76;100.00;99911.78;5093058;28;20489;-44
2023/11/01 03:29:14;;;;;;;5.45;2.50;;;;;;;11.65;100.00;99914.34;5093450;28;20048;-45
2023/11/01 03:31:43;;;;;;;4.22;2.70;;;;;;;11.63;100.00;99922.50;5093182;28;20093;-44
2023/11/01 03:34:13;;;;;;;6.28;2.67;;;;;;;11.68;100.00;99924.84;5093402;28;20425;-45
2023/11/01 03:36:41;;;;;;;4.68;2.40;;;;;;;11.66;100.00;99930.28;5090406;28;20124;-45
2023/11/01 03:39:09;;;;;;;4.35;2.30;;;;;;;11.66;100.00;99927.59;5083978;28;20051;-46
2023/11/01 03:41:40;;;;;;;5.00;2.58;;;;;;;11.69;100.00;99932.75;5092426;28;20048;-45
2023/11/01 03:44:08;;;;;;;4.53;2.28;;;;;;;11.75;100.00;99931.44;5092940;28;20390;-44
2023/11/01 03:46:37;;;;;;;7.53;2.80;;;;;;;11.73;100.00;99938.72;5093104;28;20048;-45
2023/11/01 03:49:06;;;;;;;7.18;2.80;;;;;;;11.71;100.00;99938.00;5093151;28;20048;-45
2023/11/01 03:51:35;;;;;;;3.72;2.33;;;;;;;11.78;100.00;99941.09;5093526;28;20079;-45
2023/11/01 03:54:04;;;;;;;5.70;2.40;;;;;;;11.82;100.00;99940.78;5094062;28;20049;-44
2023/11/01 03:56:32;;;;;;;5.15;2.17;;;;;;;11.81;100.00;99948.91;5092784;28;20063;-46
2023/11/01 03:59:01;;;;;;;5.40;2.65;;;;;;;11.84;100.00;99952.22;5092733;28;20088;-44
2023/11/01 04:01:29;;;;;;;5.03;1.98;;;;;;;11.86;100.00;99950.28;5092604;28;20055;-45
2023/11/01 04:03:58;;;;;;;3.80;2.00;;;;;;;11.88;100.00;99953.75;5092813;28;20044;-45
2023/11/01 04:06:27;;;;;;;4.93;2.17;;;;;;;11.90;100.00;99950.94;5092519;28;20044;-45
2023/11/01 04:08:57;;;;;;;3.72;1.90;;;;;;;11.90;100.00;99948.28;5092514;28;20158;-45
2023/11/01 04:11:25;;;;;;;5.13;2.33;;;;;;;11.87;100.00;99944.00;5090936;28;20120;-45
2023/11/01 04:13:53;;;;;;;4.82;2.10;;;;;;;11.81;100.00;99944.44;5092569;28;20416;-46
2023/11/01 04:16:21;;;;;;;5.30;2.22;;;;;;;11.88;100.00;99953.75;5092653;28;20048;-45
2023/11/01 04:18:50;;;;;;;4.50;2.05;;;;;;;11.80;100.00;99964.09;5092424;28;20048;-45
2023/11/01 04:21:18;;;;;;;4.85;1.92;;;;;;;11.80;100.00;99961.44;5092085;28;20079;-44
2023/11/01 04:23:47;;;;;;;4.38;2.30;;;;;;;11.73;100.00;99966.31;5091874;28;20048;-45
2023/11/01 04:26:16;;;;;;;3.05;1.88;;;;;;;11.73;100.00;99965.44;5091831;28;20051;-45
2023/11/01 04:28:45;;;;;;;5.55;2.05;;;;;;;11.69;100.00;99964.81;5092040;28;20050;-45
2023/11/01 04:31:13;;;;;;;5.00;2.17;;;;;;;11.66;100.00;99962.34;5092088;28;20606;-44
2023/11/01 04:33:42;;;;;;;5.35;2.33;;;;;;;11.73;100.00;99957.44;5092051;28;20417;-44
2023/11/01 04:36:10;;;;;;;5.10;2.00;;;;;;;11.63;100.00;99959.88;5092020;28;20489;-44
2023/11/01 04:38:39;;;;;;;4.88;2.00;;;;;;;11.67;100.00;99968.53;5091954;28;20048;-44
2023/11/01 04:41:09;;;;;;;4.13;1.80;;;;;;;11.67;100.00;99960.53;5092811;28;20051;-45
2023/11/01 04:43:39;;;;;;;4.65;1.92;;;;;;;11.66;100.00;99966.81;5094335;28;20075;-45
2023/11/01 04:46:08;;;;;;;4.88;2.00;;;;;;;11.66;100.00;99967.69;5091910;28;20582;-46
2023/11/01 04:48:36;;;;;;;4.10;1.85;;;;;;;11.58;100.00;99961.16;5091716;28;20048;-46
2023/11/01 04:51:05;;;;;;;5.03;1.95;;;;;;;11.57;100.00;99960.28;5091657;28;20052;-45
2023/11/01 04:53:33;;;;;;;5.85;2.00;;;;;;;11.53;100.00;99966.81;5090600;28;20044;-44
2023/11/01 04:56:05;;;;;;;5.45;2.40;;;;;;;11.50;100.00;99960.84;5124321;27;20075;-46
2023/11/01 04:58:35;;;;;;;4.43;1.85;;;;;;;11.55;100.00;99961.38;5091470;28;20518;-43
2023/11/01 05:01:06;;;;;;;5.40;2.20;;;;;;;11.39;100.00;99962.44;5091520;28;20134;-45
2023/11/01 05:03:36;;;;;;;3.03;1.65;;;;;;;11.37;100.00;99950.97;5091705;28;20378;-46
2023/11/01 05:06:05;;;;;;;3.47;2.05;;;;;;;11.34;100.00;99967.22;5091415;28;20119;-45
2023/11/01 05:08:35;;;;;;;4.85;2.20;;;;;;;11.30;100.00;99973.75;5084648;28;20555;-45
2023/11/01 05:11:04;;;;;;;5.63;2.15;;;;;;;11.19;100.00;99976.25;5073800;28;20049;-45
2023/11/01 05:13:33;;;;;;;6.80;2.53;;;;;;;11.16;100.00;99977.31;5071235;28;20090;-46
2023/11/01 05:16:01;;;;;;;3.67;2.28;;;;;;;11.20;100.00;99975.31;5071152;28;20771;-46
2023/11/01 05:18:31;;;;;;;4.60;2.50;;;;;;;11.23;100.00;99963.56;5070587;28;20462;-43
2023/11/01 05:20:59;;;;;;;6.53;2.53;;;;;;;11.25;100.00;99964.31;5070812;28;20047;-46
2023/11/01 05:23:29;;;;;;;4.82;2.67;;;;;;;11.14;100.00;99981.06;5070814;28;20118;-44
2023/11/01 05:25:57;;;;;;;5.03;2.97;;;;;;;11.23;100.00;99971.59;5070858;28;20090;-45
2023/11/01 05:28:26;;;;;;;6.70;3.05;;;;;;;10.91;100.00;99976.41;5071093;28;20106;-44
2023/11/01 05:30:54;;;;;;;7.75;3.20;;;;;;;10.94;100.00;99981.53;5070652;28;20090;-44
2023/11/01 05:33:22;;;;;;;7.65;3.40;;;;;;;10.91;100.00;99987.94;5070583;28;20428;-46
2023/11/01 05:35:52;;;;;;;6.47;3.28;;;;;;;10.95;100.00;99993.91;5070892;28;20091;-45
2023/11/01 05:38:21;;;;;;;8.32;3.10;;;;;;;11.03;100.00;99997.78;5070945;28;20053;-46
2023/11/01 05:40:49;;;;;;;4.68;3.03;;;;;;;11.03;100.00;100002.28;5070697;28;20045;-44
2023/11/01 05:43:17;;;;;;;5.28;3.00;;;;;;;11.03;100.00;100011.13;5070844;28;20044;-46
2023/11/01 05:45:46;;;;;;;6.07;3.05;;;;;;;11.09;100.00;100017.88;5070833;28;20094;-49
2023/11/01 05:48:14;;;;;;;4.90;3.13;;;;;;;11.13;100.00;100022.06;5070140;28;20511;-44
2023/11/01 05:50:46;;;;;;;5.22;3.10;;;;;;;11.13;100.00;100028.25;5070910;28;20050;-47
2023/11/01 05:53:16;;;;;;;5.32;3.33;;;;;;;11.17;100.00;100026.22;5070508;28;20453;-46
2023/11/01 05:55:44;;;;;;;5.25;3.10;;;;;;;11.18;100.00;100034.13;5070580;28;20478;-45
2023/11/01 05:58:31;;;;;;;5.72;3.25;;;;;;;11.19;100.00;100040.31;5070643;28;20098;-43
2023/11/01 06:01:00;;;;;;;5.13;2.85;;;;;;;11.17;100.00;100039.56;5070514;28;20558;-46
2023/11/01 06:03:28;;;;;;;7.50;3.05;;;;;;;11.22;100.00;100036.63;5071835;28;20071;-45
2023/11/01 06:05:57;;;;;;;7.10;3.63;;;;;;;11.24;100.00;100038.22;5074615;28;20098;-45
2023/11/01 06:08:28;;;;;;;7.85;3.22;;;;;;;11.26;100.00;100046.13;5074483;28;20049;-44
2023/11/01 06:10:56;;;;;;;6.00;3.25;;;;;;;11.22;100.00;100050.81;5074662;28;20565;-45
2023/11/01 06:13:25;;;;;;;7.13;3.28;;;;;;;11.28;100.00;100046.88;5075271;28;20055;-45
2023/11/01 06:15:59;;;;;;;7.35;3.67;;;;;;;11.44;100.00;100058.25;5074928;28;20052;-45
2023/11/01 06:18:27;;;;;;;8.52;3.75;;;;;;;11.56;100.00;100059.25;5080240;28;20048;-45
2023/11/01 06:20:56;;;;;;;4.95;3.10;;;;;;;11.70;100.00;100051.16;5078029;28;20052;-46
2023/11/01 06:23:24;;;;;;;5.85;3.50;;;;;;;11.75;100.00;100065.91;5074019;28;20062;-45
2023/11/01 06:25:54;;;;;;;6.28;3.53;;;;;;;11.73;100.00;100058.97;5074276;28;20704;-45
2023/11/01 06:28:22;;;;;;;8.07;3.45;;;;;;;11.63;100.00;100069.41;5074122;28;20052;-45
2023/11/01 06:30:51;;;;;;;6.55;3.60;;;;;;;11.67;100.00;100067.38;5074288;28;20040;-45
2023/11/01 06:33:19;;;;;;;5.60;3.13;;;;;;;11.87;100.00;100064.28;5074184;28;20506;-45
2023/11/01 06:35:48;;;;;;;8.23;3.80;;;;;;;11.85;100.00;100068.84;5073954;28;20439;-44
2023/11/01 06:38:19;;;;;;;6.88;3.83;;;;;;;11.78;100.00;100061.34;5073976;28;20083;-45
2023/11/01 06:40:47;;;;;;;6.50;3.70;;;;;;;11.83;100.00;100065.44;5074042;28;20045;-45
2023/11/01 06:43:17;;;;;;;6.75;3.50;;;;;;;11.98;100.00;100055.53;5073996;28;20064;-45
2023/11/01 06:45:45;;;;;;;5.10;3.33;;;;;;;12.11;100.00;100050.16;5073969;28;20053;-45
2023/11/01 06:48:14;;;;;;;6.03;3.78;;;;;;;12.18;100.00;100046.09;5073795;28;20044;-44
2023/11/01 06:50:43;;;;;;;5.72;3.33;;;;;;;12.33;100.00;100045.88;5073701;28;20045;-53
2023/11/01 06:53:12;;;;;;;6.38;3.28;;;;;;;12.45;100.00;100048.63;5073662;28;20060;-44
2023/11/01 06:55:40;;;;;;;8.82;3.40;;;;;;;12.37;100.00;100041.19;5072397;28;20114;-45
2023/11/01 06:58:08;;;;;;;7.10;3.25;;;;;;;12.12;100.00;100054.53;5073747;28;20045;-45
2023/11/01 07:00:38;;;;;;;5.80;3.13;;;;;;;12.12;100.00;100042.03;5073237;28;20049;-45
2023/11/01 07:03:06;;;;;;;4.75;2.97;;;;;;;11.86;100.00;100057.19;5073256;28;20040;-45
2023/11/01 07:05:39;;;;;;;6.07;3.30;;;;;;;12.00;100.00;100046.41;5073276;28;20074;-44
2023/11/01 07:08:07;;;;;;;5.05;3.38;;;;;;;12.24;100.00;100045.66;5073406;28;20049;-44
2023/11/01 07:10:36;;;;;;;5.90;3.45;;;;;;;12.23;100.00;100043.94;5073346;28;20406;-45
2023/11/01 07:13:06;;;;;;;7.60;3.42;;;;;;;12.31;100.00;100038.94;5073039;28;20052;-46
2023/11/01 07:15:38;;;;;;;7.38;3.70;;;;;;;12.53;100.00;100038.25;5072311;28;20067;-45
2023/11/01 07:18:07;;;;;;;7.97;3.45;;;;;;;12.64;100.00;100049.03;5073365;28;20052;-45
2023/11/01 07:20:38;;;;;;;8.40;3.17;;;;;;;12.69;100.00;100048.72;5073029;28;20056;-45
2023/11/01 07:23:06;;;;;;;7.53;3.08;;;;;;;12.57;100.00;100047.78;5072915;28;20117;-47
2023/11/01 07:25:35;;;;;;;8.77;3.95;;;;;;;12.81;100.00;100046.00;5073068;28;20044;-45
2023/11/01 07:28:03;;;;;;;6.18;2.90;;;;;;;12.84;100.00;100044.94;5073117;28;20078;-45
2023/11/01 07:30:31;;;;;;;5.47;2.78;;;;;;;12.82;100.00;100057.56;5071912;28;20044;-43
2023/11/01 07:33:01;;;;;;;5.75;2.88;;;;;;;12.75;100.00;100061.66;5073804;28;20521;-44
2023/11/01 07:35:30;;;;;;;5.15;2.95;;;;;;;12.89;100.00;100061.50;5093295;28;20051;-45
2023/11/01 07:37:58;;;;;;;5.85;3.00;;;;;;;13.10;100.00;100057.25;5093260;28;20079;-47
2023/11/01 07:40:26;;;;;;;5.43;2.67;;;;;;;13.23;100.00;100051.03;5093394;28;20130;-44
2023/11/01 07:42:56;;;;;;;7.10;2.80;;;;;;;13.33;100.00;100054.75;5093134;28;20052;-44
2023/11/01 07:45:24;;;;;;;4.25;2.58;;;;;;;13.40;100.00;100055.97;5093158;28;20044;-44
2023/11/01 07:47:52;;;;;;;6.72;3.03;;;;;;;13.28;100.00;100054.22;5092812;28;20051;-44
2023/11/01 07:50:22;;;;;;;5.05;2.83;;;;;;;13.08;100.00;100048.47;5092735;28;20079;-44
2023/11/01 07:52:50;;;;;;;10.75;3.15;;;;;;;13.34;100.00;100053.78;5092783;28;20048;-45
2023/11/01 07:55:19;;;;;;;5.63;3.00;;;;;;;13.55;100.00;100057.50;5092758;28;20098;-44
2023/11/01 07:57:47;;;;;;;4.65;2.85;;;;;;;13.69;100.00;100057.31;5092977;28;20481;-45
2023/11/01 08:00:17;;;;;;;5.93;2.85;;;;;;;13.63;100.00;100067.66;5092789;28;20059;-44
2023/11/01 08:02:46;;;;;;;4.93;2.78;;;;;;;13.79;100.00;100078.03;5092568;28;20127;-44
2023/11/01 08:05:14;;;;;;;5.80;2.92;;;;;;;13.96;100.00;100077.63;5092526;28;20044;-44
2023/11/01 08:07:44;;;;;;;4.55;2.60;;;;;;;14.00;100.00;100079.09;5092655;28;20481;-45
2023/11/01 08:10:13;;;;;;;6.47;2.58;;;;;;;13.98;100.00;100070.31;5092811;28;20048;-45
2023/11/01 08:12:41;;;;;;;5.63;3.00;;;;;;;13.91;100.00;100059.22;5092481;28;20473;-44
2023/11/01 08:15:11;;;;;;;6.47;3.00;;;;;;;13.97;100.00;100068.59;5092403;28;20135;-43
2023/11/01 08:17:39;;;;;;;6.00;2.78;;;;;;;14.05;100.00;100066.19;5092236;28;20044;-47
2023/11/01 08:20:08;;;;;;;5.18;2.45;;;;;;;14.14;100.00;100064.63;5091942;28;20052;-44
2023/11/01 08:22:37;;;;;;;20.42;10.55;;;;;;;14.23;100.00;100058.53;5091583;28;20056;-43
2023/11/01 08:25:08;;;;;;;7.38;4.57;;;;;;;14.38;100.00;100065.41;5092131;28;20436;-46
2023/11/01 08:27:37;;;;;;;6.05;3.33;;;;;;;14.51;100.00;100055.41;5090732;28;20437;-44
2023/11/01 08:30:06;;;;;;;3.83;2.50;;;;;;;14.58;100.00;100058.47;5091566;28;20056;-45
2023/11/01 08:32:36;;;;;;;4.68;2.42;;;;;;;14.69;100.00;100071.88;5091988;28;20132;-44
2023/11/01 08:35:06;;;;;;;4.85;2.63;;;;;;;14.62;100.00;100073.34;5091347;28;20047;-45
2023/11/01 08:37:34;;;;;;;5.68;2.80;;;;;;;14.68;100.00;100063.97;5091588;28;20512;-44
2023/11/01 08:40:03;;;;;;;4.82;2.60;;;;;;;14.74;100.00;100064.31;5091615;28;20047;-44
2023/11/01 08:42:33;;;;;;;5.65;2.33;;;;;;;14.84;100.00;100064.41;5091598;28;20687;-43
2023/11/01 08:45:01;;;;;;;4.47;2.47;;;;;;;14.86;100.00;100067.81;5091703;28;20213;-44
2023/11/01 08:47:35;;;;;;;5.05;2.38;;;;;;;14.96;100.00;100070.63;5091393;28;20048;-44
2023/11/01 08:50:04;;;;;;;6.05;2.45;;;;;;;15.02;100.00;100072.81;5091489;28;20062;-44
2023/11/01 08:52:32;;;;;;;5.40;2.40;;;;;;;15.00;100.00;100064.03;5091425;28;20050;-44
2023/11/01 08:55:01;;;;;;;4.03;1.90;;;;;;;15.01;100.00;100071.97;5091509;28;20044;-43
2023/11/01 08:57:33;;;;;;;6.80;2.97;;;;;;;15.05;100.00;100072.56;5091272;28;20477;-44
2023/11/01 09:00:04;;;;;;;15.43;8.15;;;;;;;15.18;100.00;100073.28;5091638;28;20051;-45
2023/11/01 09:02:32;;;;;;;8.32;3.90;;;;;;;15.16;100.00;100075.25;5091317;28;20052;-45
2023/11/01 09:05:01;;;;;;;5.07;2.33;;;;;;;15.21;100.00;100070.31;5091125;28;20055;-44
2023/11/01 09:07:29;;;;;;;3.65;1.80;;;;;;;15.16;100.00;100070.72;5091150;28;20051;-44
2023/11/01 09:09:57;;;;;;;4.78;1.80;;;;;;;15.27;100.00;100067.16;5091195;28;20055;-44
2023/11/01 09:12:33;;;;;;;3.70;1.60;;;;;;;15.31;100.00;100079.34;5091214;28;20481;-44
2023/11/01 09:15:04;;;;;;;4.53;2.10;;;;;;;15.30;100.00;100079.47;5091234;28;20044;-44
2023/11/01 09:17:34;;;;;;;3.70;1.88;;;;;;;15.36;100.00;100081.66;5091247;28;20055;-45
2023/11/01 09:20:03;;;;;;;4.05;1.50;;;;;;;15.37;100.00;100073.47;5091647;28;20044;-44
2023/11/01 09:22:31;;;;;;;3.78;1.75;;;;;;;15.43;100.00;100078.31;5091310;28;20105;-44
2023/11/01 09:25:00;;;;;;;3.78;1.67;;;;;;;15.52;100.00;100086.59;5091725;28;20047;-46
2023/11/01 09:27:28;;;;;;;5.03;1.50;;;;;;;15.51;100.00;100090.28;5091765;28;20050;-44
2023/11/01 09:29:58;;;;;;;2.63;1.50;;;;;;;15.49;100.00;100097.63;5091994;28;20132;-44
2023/11/01 09:32:26;;;;;;;3.38;1.60;;;;;;;15.41;100.00;100100.94;5092027;28;20476;-44
2023/11/01 09:34:54;;;;;;;3.60;1.50;;;;;;;15.55;100.00;100103.34;5091963;28;20153;-46
2023/11/01 09:37:23;;;;;;;3.35;1.77;;;;;;;15.55;100.00;100105.19;5091669;28;20082;-45
2023/11/01 09:39:51;;;;;;;2.53;1.60;;;;;;;15.60;100.00;100106.53;5091265;28;20237;-45
2023/11/01 09:42:21;;;;;;;4.40;1.83;;;;;;;15.52;100.00;100113.47;5090744;28;20528;-46
2023/11/01 09:44:50;;;;;;;3.65;1.73;;;;;;;15.49;100.00;100119.13;5090785;28;20055;-44
2023/11/01 09:47:19;;;;;;;14.75;6.55;;;;;;;15.52;100.00;100113.47;5090934;28;20052;-45
2023/11/01 09:49:48;;;;;;;5.18;2.20;;;;;;;15.56;100.00;100123.03;5090886;28;20054;-45
2023/11/01 09:52:18;;;;;;;4.13;2.10;;;;;;;15.77;100.00;100123.94;5090545;28;20128;-44
2023/11/01 09:54:47;;;;;;;4.18;1.38;;;;;;;15.81;100.00;100124.53;5090613;28;20041;-43
2023/11/01 09:57:16;;;;;;;3.05;1.40;;;;;;;15.84;100.00;100118.91;5090917;28;20044;-45
2023/11/01 09:59:45;;;;;;;3.25;1.50;;;;;;;15.96;100.00;100115.19;5090426;28;20076;-45
2023/11/01 10:02:13;;;;;;;3.63;1.85;;;;;;;16.05;100.00;100121.63;5090372;28;20437;-44
2023/11/01 10:04:44;;;;;;;3.97;1.70;;;;;;;16.08;100.00;100115.97;5090386;28;20164;-45
2023/11/01 10:07:13;;;;;;;3.33;1.70;;;;;;;16.06;100.00;100118.78;5090000;28;20094;-43
2023/11/01 10:09:41;;;;;;;4.70;1.70;;;;;;;16.20;100.00;100117.59;5090307;28;20048;-44
2023/11/01 10:12:10;;;;;;;4.43;1.70;;;;;;;16.21;100.00;100116.63;5090229;28;20040;-45
2023/11/01 10:14:39;;;;;;;3.25;1.40;;;;;;;16.33;100.00;100117.41;5090125;28;20150;-44
2023/11/01 10:17:08;;;;;;;2.97;1.50;;;;;;;16.47;100.00;100114.38;5090126;28;20327;-47
2023/11/01 10:19:36;;;;;;;2.63;1.20;;;;;;;16.52;100.00;100110.31;5090242;28;20159;-44
2023/11/01 10:22:06;;;;;;;4.43;1.17;;;;;;;16.62;100.00;100110.34;5090058;28;20084;-45
2023/11/01 10:24:34;;;;;;;3.00;1.50;;;;;;;16.63;100.00;100105.81;5090173;28;20497;-43
2023/11/01 10:27:02;;;;;;;2.72;1.27;;;;;;;16.64;100.00;100104.84;5090443;28;20048;-43
2023/11/01 10:29:30;;;;;;;2.63;1.48;;;;;;;16.67;100.00;100102.72;5090246;28;20048;-43
2023/11/01 10:32:01;;;;;;;3.10;1.33;;;;;;;16.74;100.00;100095.00;5090137;28;20131;-44
2023/11/01 10:34:31;;;;;;;5.97;1.60;;;;;;;16.78;100.00;100099.09;5090065;28;20548;-44
2023/11/01 10:37:04;;;;;;;2.70;1.33;;;;;;;16.74;100.00;100089.59;5090175;28;20044;-45
2023/11/01 10:39:36;;;;;;;3.75;1.40;;;;;;;16.60;100.00;100077.34;5090367;28;20055;-44
2023/11/01 10:42:07;;;;;;;3.80;1.00;;;;;;;16.68;100.00;100079.31;5090154;28;20131;-43
2023/11/01 10:44:36;;;;;;;3.35;1.42;;;;;;;16.61;100.00;100070.97;5090416;28;20190;-44
2023/11/01 10:47:07;;;;;;;2.35;1.30;;;;;;;16.52;100.00;100072.63;5090265;28;20044;-45
2023/11/01 10:49:37;;;;;;;2.53;1.33;;;;;;;16.20;100.00;100072.72;5091565;28;20054;-44
2023/11/01 10:52:08;;;;;;;3.85;1.50;;;;;;;16.11;100.00;100067.25;5094225;28;20048;-44
2023/11/01 10:54:38;;;;;;;2.95;1.45;;;;;;;16.08;100.00;100068.38;5094716;28;20040;-46
2023/11/01 10:57:08;;;;;;;2.17;1.38;;;;;;;16.17;100.00;100067.59;5094505;28;20051;-45
2023/11/01 10:59:43;;;;;;;3.80;1.23;;;;;;;16.26;100.00;100061.44;5095271;28;20082;-45
2023/11/01 11:02:17;;;;;;;1.92;1.20;;;;;;;16.24;100.00;100068.78;5095052;28;20048;-45
2023/11/01 11:04:52;;;;;;;2.25;1.20;;;;;;;16.27;100.00;100059.59;5095061;28;20048;-44
2023/11/01 11:07:34;;;;;;;4.03;1.33;;;;;;;16.49;100.00;100056.72;5094466;28;20097;-46
2023/11/01 11:10:26;;;;;;;2.20;1.23;;;;;;;16.73;100.00;100051.03;5094108;28;20148;-45
2023/11/01 11:13:26;;;;;;;2.42;1.23;;;;;;;16.78;100.00;100046.09;5094361;28;20048;-46
2023/11/01 11:16:00;;;;;;;5.03;2.38;;;;;;;16.90;100.00;100033.38;5093867;28;20109;-46
2023/11/01 11:18:45;;;;;;;2.45;1.35;;;;;;;16.88;100.00;100024.56;5092459;28;20051;-45
2023/11/01 11:21:46;;;;;;;2.75;1.30;;;;;;;16.80;100.00;100032.50;5093394;28;20075;-46
2023/11/01 11:24:47;;;;;;;2.30;1.20;;;;;;;16.85;100.00;100019.47;5093457;28;20048;-46
2023/11/01 11:27:51;;;;;;;2.20;1.02;;;;;;;16.89;100.00;100020.91;5093384;28;20461;-47
2023/11/01 11:30:57;;;;;;;2.97;1.13;;;;;;;16.92;100.00;100012.53;5093146;28;20048;-46
2023/11/01 11:33:25;;;;;;;2.03;1.00;;;;;;;16.77;100.00;100011.22;5093131;28;20051;-44